Time;durP1;ratioP1;P1;durP2;ratioP2;P2;SDS_P1;SDS_P2;PMS_P1;PMS_P2;Temp;Humidity;BMP_temperature;BMP_pressure;BME280_temperature;BME280_humidity;BME280_pressure;Samples;Min_cycle;Max_cycle;Signal;HPM_P1;HPM_P2
2021/12/26 00:00:43;;;;;;;11.98;7.07;;;1.40;91.60;;;;;;5006019;28;20038;-80
2021/12/26 00:03:08;;;;;;;11.02;6.45;;;1.40;91.50;;;;;;5005095;28;20127;-81
2021/12/26 00:05:34;;;;;;;10.18;6.50;;;1.40;91.50;;;;;;5018785;28;20488;-81
2021/12/26 00:07:59;;;;;;;10.95;6.03;;;1.40;91.50;;;;;;5018732;28;20099;-80
2021/12/26 00:10:25;;;;;;;10.48;6.30;;;1.40;91.50;;;;;;5010540;28;20026;-80
2021/12/26 00:12:51;;;;;;;11.57;6.90;;;1.40;91.50;;;;;;5017804;28;20032;-79
2021/12/26 00:15:16;;;;;;;10.43;6.03;;;1.40;91.50;;;;;;5013975;28;20462;-80
2021/12/26 00:17:42;;;;;;;10.90;6.47;;;1.40;91.50;;;;;;5017369;28;20067;-80
2021/12/26 00:20:08;;;;;;;9.98;6.72;;;1.40;91.50;;;;;;5015735;28;20029;-80
2021/12/26 00:22:34;;;;;;;12.27;6.55;;;1.40;91.50;;;;;;5020454;28;20487;-79
2021/12/26 00:25:00;;;;;;;10.00;6.35;;;1.40;91.50;;;;;;5012568;28;20048;-81
2021/12/26 00:27:27;;;;;;;10.18;5.97;;;1.30;91.50;;;;;;5025242;28;20059;-81
2021/12/26 00:29:52;;;;;;;11.63;6.13;;;1.30;91.50;;;;;;5036106;28;20567;-80
2021/12/26 00:32:18;;;;;;;10.38;6.03;;;1.30;91.50;;;;;;5017953;28;20088;-81
2021/12/26 00:34:44;;;;;;;9.30;5.82;;;1.30;91.50;;;;;;5018275;28;20026;-80
2021/12/26 00:37:10;;;;;;;10.75;5.80;;;1.30;91.50;;;;;;5017527;28;20037;-78
2021/12/26 00:39:36;;;;;;;11.00;6.35;;;1.30;91.50;;;;;;5024309;28;20072;-81
2021/12/26 00:42:02;;;;;;;11.05;6.70;;;1.30;91.50;;;;;;5015978;28;20048;-77
2021/12/26 00:44:27;;;;;;;10.65;5.95;;;1.30;91.50;;;;;;4999231;28;20041;-81
2021/12/26 00:46:56;;;;;;;12.55;5.90;;;1.30;91.50;;;;;;5018075;28;20524;-80
2021/12/26 00:49:22;;;;;;;9.52;5.93;;;1.30;91.50;;;;;;5013291;28;20057;-80
2021/12/26 00:51:48;;;;;;;9.13;5.75;;;1.30;91.50;;;;;;4999330;28;20151;-79
2021/12/26 00:54:14;;;;;;;12.60;6.60;;;1.40;91.60;;;;;;5017588;28;20547;-80
2021/12/26 00:56:39;;;;;;;8.90;5.57;;;1.30;91.50;;;;;;4993826;28;20125;-80
2021/12/26 00:59:05;;;;;;;8.93;5.20;;;1.30;91.50;;;;;;5045342;28;20603;-80
2021/12/26 01:01:30;;;;;;;11.23;6.25;;;1.30;91.40;;;;;;5024918;28;20495;-80
2021/12/26 01:03:56;;;;;;;9.52;5.97;;;1.30;91.50;;;;;;5034526;28;20546;-80
2021/12/26 01:06:23;;;;;;;10.18;6.20;;;1.30;91.50;;;;;;5019273;28;20068;-81
2021/12/26 01:08:50;;;;;;;8.05;5.47;;;1.30;91.50;;;;;;5024779;28;20033;-80
2021/12/26 01:11:55;;;;;;;9.40;5.68;;;1.30;91.50;;;;;;5001197;28;20454;-80
2021/12/26 01:14:11;;;;;;;8.10;4.82;;;1.30;91.40;;;;;;5014052;28;20041;-80
2021/12/26 01:16:38;;;;;;;8.23;5.80;;;1.30;91.40;;;;;;5015867;28;20029;-80
2021/12/26 01:19:15;;;;;;;9.85;5.68;;;1.30;91.50;;;;;;5023329;28;20099;-80
2021/12/26 01:21:41;;;;;;;9.13;5.93;;;1.30;91.50;;;;;;5019031;28;20043;-80
2021/12/26 01:24:08;;;;;;;10.13;5.07;;;1.30;91.50;;;;;;5029388;28;20041;-80
2021/12/26 01:26:34;;;;;;;8.93;5.50;;;1.30;91.40;;;;;;5008982;28;20483;-82
2021/12/26 01:29:00;;;;;;;9.20;4.82;;;1.30;91.50;;;;;;5028441;28;20053;-81
2021/12/26 01:31:25;;;;;;;8.98;4.88;;;1.30;91.50;;;;;;5002273;28;20044;-81
2021/12/26 01:33:59;;;;;;;8.38;5.50;;;1.30;91.40;;;;;;5019398;28;20064;-80
2021/12/26 01:36:24;;;;;;;8.40;5.18;;;1.30;91.40;;;;;;5018110;28;20049;-80
2021/12/26 01:38:50;;;;;;;7.50;5.10;;;1.30;91.40;;;;;;5014932;28;20033;-81
2021/12/26 01:41:17;;;;;;;10.75;5.32;;;1.30;91.40;;;;;;5019259;28;20389;-81
2021/12/26 01:43:46;;;;;;;10.80;5.63;;;1.30;91.50;;;;;;5017097;28;20041;-79
2021/12/26 01:46:11;;;;;;;8.75;5.40;;;1.30;91.50;;;;;;5023528;28;20095;-80
2021/12/26 01:48:37;;;;;;;9.35;5.05;;;1.30;91.50;;;;;;5023283;28;20037;-80
2021/12/26 01:51:02;;;;;;;9.68;5.40;;;1.30;91.40;;;;;;5021192;28;20034;-81
2021/12/26 01:53:35;;;;;;;8.43;5.32;;;1.30;91.40;;;;;;5018923;28;20026;-80
2021/12/26 01:56:00;;;;;;;7.15;4.55;;;1.20;91.40;;;;;;5018206;28;20029;-80
2021/12/26 01:58:28;;;;;;;7.30;4.63;;;1.20;91.30;;;;;;5028681;28;20028;-81
2021/12/26 02:00:57;;;;;;;6.95;4.63;;;1.20;91.40;;;;;;5020033;28;20030;-82
2021/12/26 02:03:23;;;;;;;9.57;4.82;;;1.20;91.40;;;;;;4994822;28;20048;-80
2021/12/26 02:05:48;;;;;;;7.45;4.78;;;1.20;91.40;;;;;;5028477;28;20101;-80
2021/12/26 02:08:14;;;;;;;8.70;5.13;;;1.20;91.40;;;;;;5021198;28;20070;-80
2021/12/26 02:10:39;;;;;;;8.82;5.65;;;1.20;91.40;;;;;;5026790;28;20112;-81
2021/12/26 02:13:05;;;;;;;8.80;5.25;;;1.20;91.40;;;;;;5022836;28;20029;-80
2021/12/26 02:15:31;;;;;;;9.25;4.90;;;1.20;91.40;;;;;;5008640;28;20025;-81
2021/12/26 02:17:56;;;;;;;6.53;4.03;;;1.20;91.40;;;;;;5018583;28;20044;-80
2021/12/26 02:20:40;;;;;;;7.25;4.47;;;1.20;91.30;;;;;;5028257;28;20025;-81
2021/12/26 02:23:13;;;;;;;7.05;4.60;;;1.20;91.30;;;;;;5007562;28;20112;-80
2021/12/26 02:28:26;;;;;;;7.18;4.70;;;1.10;91.30;;;;;;5017597;28;20029;-79
2021/12/26 02:30:53;;;;;;;7.80;4.80;;;1.10;91.30;;;;;;5017232;28;20067;-79
2021/12/26 02:33:19;;;;;;;9.60;5.25;;;1.10;91.30;;;;;;5032381;28;20044;-80
2021/12/26 02:35:45;;;;;;;6.53;4.47;;;1.10;91.30;;;;;;5020878;28;20026;-81
2021/12/26 02:38:12;;;;;;;8.55;4.88;;;1.10;91.20;;;;;;5019983;28;20518;-80
2021/12/26 02:40:38;;;;;;;8.27;5.07;;;1.10;91.20;;;;;;5020420;28;20018;-80
2021/12/26 02:43:04;;;;;;;7.20;4.30;;;1.10;91.30;;;;;;4995079;28;20338;-80
2021/12/26 02:45:31;;;;;;;6.47;4.72;;;1.10;91.30;;;;;;5018569;28;20035;-81
2021/12/26 02:47:57;;;;;;;6.78;4.32;;;1.10;91.30;;;;;;5019382;28;20431;-81
2021/12/26 02:50:24;;;;;;;7.93;4.65;;;1.10;91.30;;;;;;5022552;28;20029;-81
2021/12/26 02:52:50;;;;;;;5.60;3.90;;;1.10;91.20;;;;;;5029412;28;20041;-80
2021/12/26 02:55:16;;;;;;;7.57;4.75;;;1.10;91.30;;;;;;5006472;28;20025;-80
2021/12/26 02:57:48;;;;;;;8.15;4.40;;;1.10;91.30;;;;;;4991206;28;20120;-80
2021/12/26 03:00:16;;;;;;;7.85;4.07;;;1.10;91.30;;;;;;5021930;28;20149;-81
2021/12/26 03:02:42;;;;;;;6.15;4.00;;;1.10;91.30;;;;;;5018831;28;20131;-79
2021/12/26 03:05:08;;;;;;;7.93;4.40;;;1.00;91.20;;;;;;5008253;28;20327;-80
2021/12/26 03:07:33;;;;;;;6.82;4.30;;;1.00;91.20;;;;;;5013918;28;20551;-80
2021/12/26 03:10:00;;;;;;;6.97;4.45;;;1.00;91.20;;;;;;5000590;28;20030;-80
2021/12/26 03:12:30;;;;;;;6.65;4.38;;;1.00;91.20;;;;;;5003744;28;20025;-79
2021/12/26 03:14:56;;;;;;;7.25;4.38;;;1.00;91.20;;;;;;5016953;28;20067;-80
2021/12/26 03:17:21;;;;;;;7.72;4.10;;;1.00;91.20;;;;;;5014680;28;20512;-80
2021/12/26 03:19:47;;;;;;;6.82;4.45;;;1.00;91.20;;;;;;5021668;28;20040;-79
2021/12/26 03:22:14;;;;;;;7.22;4.32;;;1.00;91.20;;;;;;5011131;28;20034;-81
2021/12/26 03:24:43;;;;;;;6.28;4.20;;;0.90;91.20;;;;;;5048584;28;20100;-82
2021/12/26 03:27:09;;;;;;;6.32;3.92;;;0.90;91.10;;;;;;5020147;28;20045;-81
2021/12/26 03:29:34;;;;;;;6.20;4.22;;;0.90;91.20;;;;;;5004555;28;20455;-81
2021/12/26 03:32:00;;;;;;;5.68;3.60;;;0.90;91.10;;;;;;4990416;28;20617;-81
2021/12/26 03:34:25;;;;;;;6.60;3.80;;;0.90;91.20;;;;;;4982479;28;20053;-80
2021/12/26 03:36:53;;;;;;;10.48;4.18;;;0.90;91.20;;;;;;5002277;28;20492;-80
2021/12/26 03:39:18;;;;;;;6.80;4.03;;;0.90;91.20;;;;;;5003788;28;20518;-81
2021/12/26 03:41:44;;;;;;;6.35;3.88;;;0.90;91.20;;;;;;4996633;28;20040;-80
2021/12/26 03:44:10;;;;;;;7.43;4.25;;;0.90;91.10;;;;;;5017109;28;20029;-80
2021/12/26 03:46:36;;;;;;;6.05;3.70;;;1.00;91.20;;;;;;4996353;28;20038;-80
2021/12/26 03:49:04;;;;;;;7.22;4.05;;;0.90;91.10;;;;;;5002102;28;20038;-80
2021/12/26 03:51:30;;;;;;;5.90;4.03;;;0.90;91.20;;;;;;5019144;28;20075;-81
2021/12/26 03:53:56;;;;;;;6.00;3.72;;;1.00;91.20;;;;;;5046600;28;20550;-80
2021/12/26 03:56:21;;;;;;;7.28;4.15;;;1.00;91.20;;;;;;5023250;28;20048;-81
2021/12/26 03:58:47;;;;;;;6.60;3.70;;;1.00;91.20;;;;;;5003622;28;20042;-80
2021/12/26 04:01:12;;;;;;;7.10;3.55;;;0.90;91.20;;;;;;5035008;28;20830;-79
2021/12/26 04:03:38;;;;;;;6.10;4.10;;;0.90;91.20;;;;;;5034094;28;20041;-81
2021/12/26 04:06:04;;;;;;;6.28;3.60;;;0.90;91.20;;;;;;5016295;28;20403;-81
2021/12/26 04:08:29;;;;;;;6.43;4.28;;;0.90;91.20;;;;;;5027774;28;20081;-80
2021/12/26 04:10:55;;;;;;;8.25;4.53;;;0.90;91.20;;;;;;5026930;28;20457;-80
2021/12/26 04:13:20;;;;;;;7.75;4.22;;;0.90;91.20;;;;;;5007707;28;20029;-80
2021/12/26 04:15:46;;;;;;;8.77;3.65;;;0.90;91.10;;;;;;5011562;28;20504;-80
2021/12/26 04:18:12;;;;;;;7.00;3.80;;;0.90;91.20;;;;;;5019037;28;20052;-80
2021/12/26 04:20:37;;;;;;;7.57;4.00;;;0.90;91.10;;;;;;4992313;28;20336;-79
2021/12/26 04:23:03;;;;;;;7.72;4.22;;;0.90;91.10;;;;;;5015264;28;20040;-81
2021/12/26 04:25:28;;;;;;;6.13;3.63;;;0.90;91.10;;;;;;5015916;28;20040;-80
2021/12/26 04:27:54;;;;;;;7.93;4.32;;;0.90;91.10;;;;;;5016826;28;20124;-80
2021/12/26 04:30:20;;;;;;;6.15;3.63;;;0.90;91.10;;;;;;5008829;28;20025;-80
2021/12/26 04:32:45;;;;;;;7.93;3.30;;;0.90;91.10;;;;;;5002250;28;20069;-80
2021/12/26 04:35:11;;;;;;;7.03;3.70;;;0.90;91.10;;;;;;5018416;28;20041;-80
2021/12/26 04:37:37;;;;;;;7.35;4.18;;;0.90;91.20;;;;;;5020158;28;20657;-80
2021/12/26 04:40:07;;;;;;;6.85;4.32;;;0.90;91.20;;;;;;5018064;28;20033;-80
2021/12/26 04:42:32;;;;;;;6.85;3.90;;;0.90;91.20;;;;;;5001572;28;20049;-80
2021/12/26 04:44:58;;;;;;;5.30;3.38;;;0.90;91.10;;;;;;5018159;28;20033;-80
2021/12/26 04:47:23;;;;;;;6.88;3.95;;;0.90;91.10;;;;;;5016669;28;20037;-80
2021/12/26 04:49:49;;;;;;;5.50;3.25;;;0.90;91.20;;;;;;5004226;28;20116;-79
2021/12/26 04:52:15;;;;;;;6.53;3.75;;;0.90;91.10;;;;;;5009809;28;20039;-80
2021/12/26 04:54:41;;;;;;;5.75;3.58;;;0.90;91.20;;;;;;5000547;28;20057;-81
2021/12/26 04:57:06;;;;;;;5.88;3.90;;;0.90;91.10;;;;;;5016165;28;20049;-79
2021/12/26 04:59:32;;;;;;;6.18;3.50;;;0.90;91.10;;;;;;5019280;28;20041;-81
2021/12/26 05:01:57;;;;;;;7.13;3.72;;;0.90;91.10;;;;;;5000080;28;20042;-80
2021/12/26 05:04:23;;;;;;;6.15;4.03;;;0.90;91.20;;;;;;5015736;28;20091;-79
2021/12/26 05:06:48;;;;;;;6.47;3.75;;;0.90;91.10;;;;;;5019689;28;20037;-81
2021/12/26 05:09:14;;;;;;;7.55;3.42;;;0.90;91.10;;;;;;5021739;28;20090;-80
2021/12/26 05:11:40;;;;;;;5.60;3.88;;;0.90;91.20;;;;;;5022490;28;20037;-81
2021/12/26 05:14:06;;;;;;;7.40;3.72;;;0.90;91.10;;;;;;4988655;28;20121;-80
2021/12/26 05:16:31;;;;;;;6.82;3.90;;;0.90;91.10;;;;;;4994178;28;20052;-80
2021/12/26 05:18:57;;;;;;;5.10;3.28;;;0.90;91.10;;;;;;5018154;28;20060;-80
2021/12/26 05:21:22;;;;;;;5.70;3.60;;;0.90;91.20;;;;;;5023634;28;20553;-80
2021/12/26 05:23:48;;;;;;;8.73;3.72;;;0.90;91.20;;;;;;5019331;28;20042;-81
2021/12/26 05:26:13;;;;;;;6.90;3.92;;;0.90;91.20;;;;;;5022914;28;20037;-81
2021/12/26 05:28:39;;;;;;;7.80;3.70;;;0.90;91.20;;;;;;5016917;28;20095;-80
2021/12/26 05:31:04;;;;;;;5.10;3.20;;;0.90;91.20;;;;;;5029332;28;20129;-80
2021/12/26 05:33:30;;;;;;;5.03;3.60;;;0.90;91.20;;;;;;5005802;28;20116;-80
2021/12/26 05:35:55;;;;;;;5.15;3.35;;;0.90;91.20;;;;;;5015807;28;20636;-80
2021/12/26 05:38:21;;;;;;;6.22;3.80;;;0.90;91.20;;;;;;5019129;28;20038;-79
2021/12/26 05:40:47;;;;;;;6.53;3.67;;;0.90;91.20;;;;;;5021313;28;20113;-79
2021/12/26 05:43:12;;;;;;;5.43;3.17;;;0.90;91.20;;;;;;5027440;28;20403;-80
2021/12/26 05:45:38;;;;;;;4.78;3.05;;;0.90;91.10;;;;;;5029025;28;20068;-81
2021/12/26 05:48:04;;;;;;;6.55;3.40;;;0.90;91.10;;;;;;5018162;28;20060;-80
2021/12/26 05:50:29;;;;;;;5.93;3.67;;;0.90;91.10;;;;;;5023007;28;20460;-80
2021/12/26 05:52:55;;;;;;;6.28;3.42;;;0.90;91.10;;;;;;5002871;28;20034;-82
2021/12/26 05:55:20;;;;;;;5.43;3.63;;;0.90;91.20;;;;;;5020903;28;20057;-80
2021/12/26 05:57:46;;;;;;;5.63;3.20;;;0.90;91.20;;;;;;5016754;28;20124;-80
2021/12/26 06:00:14;;;;;;;6.25;3.78;;;0.90;91.20;;;;;;5020556;28;20055;-79
2021/12/26 06:02:40;;;;;;;8.85;5.03;;;0.80;91.20;;;;;;5019040;28;20045;-80
2021/12/26 06:05:05;;;;;;;6.20;4.05;;;0.90;91.20;;;;;;5021988;28;20025;-80
2021/12/26 06:07:31;;;;;;;7.85;3.83;;;0.90;91.20;;;;;;5021385;28;20131;-81
2021/12/26 06:09:58;;;;;;;7.47;3.95;;;0.80;91.10;;;;;;5016265;28;20103;-80
2021/12/26 06:12:23;;;;;;;7.40;4.07;;;0.90;91.10;;;;;;5005557;28;20950;-80
2021/12/26 06:14:49;;;;;;;5.07;3.40;;;0.90;91.10;;;;;;4997811;28;20136;-80
2021/12/26 06:17:14;;;;;;;8.55;4.35;;;0.90;91.10;;;;;;5006352;28;20492;-80
2021/12/26 06:19:40;;;;;;;8.85;4.03;;;0.80;91.10;;;;;;5020023;28;20586;-81
2021/12/26 06:22:06;;;;;;;4.93;3.25;;;0.80;91.10;;;;;;5001420;28;20113;-80
2021/12/26 06:24:32;;;;;;;7.03;3.60;;;0.80;91.10;;;;;;5019430;28;20037;-79
2021/12/26 06:26:57;;;;;;;5.80;3.85;;;0.80;91.10;;;;;;4999895;28;20045;-80
2021/12/26 06:29:23;;;;;;;6.63;3.80;;;0.80;91.10;;;;;;5003516;28;20041;-79
2021/12/26 06:31:49;;;;;;;7.45;4.15;;;0.80;91.10;;;;;;5018775;28;20064;-79
2021/12/26 06:34:14;;;;;;;6.10;3.85;;;0.80;91.10;;;;;;5015882;28;20029;-80
2021/12/26 06:36:40;;;;;;;6.68;3.88;;;0.80;91.20;;;;;;5012727;28;20042;-80
2021/12/26 06:39:05;;;;;;;6.78;4.07;;;0.80;91.10;;;;;;5014810;28;20550;-80
2021/12/26 06:41:31;;;;;;;5.95;3.53;;;0.80;91.10;;;;;;5016565;28;20144;-79
2021/12/26 06:43:57;;;;;;;6.97;3.70;;;0.80;91.20;;;;;;4999485;28;20037;-80
2021/12/26 06:46:22;;;;;;;7.68;4.35;;;0.80;91.20;;;;;;4997112;28;20041;-79
2021/12/26 06:48:48;;;;;;;6.28;3.85;;;0.80;91.10;;;;;;5029364;28;20412;-79
2021/12/26 06:51:14;;;;;;;8.68;3.92;;;0.80;91.10;;;;;;5014576;28;20530;-79
2021/12/26 06:53:39;;;;;;;7.50;4.18;;;0.80;91.10;;;;;;4995449;28;20028;-79
2021/12/26 06:56:05;;;;;;;7.03;4.30;;;0.80;91.10;;;;;;5002084;28;20033;-79
2021/12/26 06:58:31;;;;;;;7.07;4.28;;;0.80;91.10;;;;;;5014523;28;20041;-80
2021/12/26 07:00:57;;;;;;;5.70;3.83;;;0.80;91.10;;;;;;5005856;28;20037;-80
2021/12/26 07:03:22;;;;;;;7.35;4.32;;;0.80;91.10;;;;;;5013655;28;20381;-80
2021/12/26 07:05:48;;;;;;;6.55;4.10;;;0.80;91.10;;;;;;5012149;28;20039;-79
2021/12/26 07:08:13;;;;;;;59.20;23.75;;;0.80;91.10;;;;;;5003046;28;20025;-80
2021/12/26 07:10:39;;;;;;;42.65;16.45;;;0.80;91.10;;;;;;5015015;28;20060;-80
2021/12/26 07:13:04;;;;;;;218.43;74.18;;;0.80;91.10;;;;;;5016625;28;20492;-79
2021/12/26 07:15:30;;;;;;;56.75;22.95;;;0.80;91.10;;;;;;5017911;28;20042;-80
2021/12/26 07:17:55;;;;;;;30.75;12.20;;;0.80;91.20;;;;;;5016609;28;20053;-81
2021/12/26 07:20:21;;;;;;;19.40;15.02;;;0.80;91.10;;;;;;5020456;28;20034;-80
2021/12/26 07:22:46;;;;;;;10.27;5.72;;;0.90;91.20;;;;;;5015128;28;20055;-81
2021/12/26 07:25:13;;;;;;;17.45;8.75;;;0.80;91.10;;;;;;5019539;28;20029;-80
2021/12/26 07:27:39;;;;;;;8.63;5.00;;;0.80;91.10;;;;;;5017522;28;20036;-80
2021/12/26 07:30:05;;;;;;;9.80;5.70;;;0.80;91.20;;;;;;5002045;28;20040;-80
2021/12/26 07:32:31;;;;;;;11.93;5.82;;;0.90;91.20;;;;;;5005253;28;20474;-80
2021/12/26 07:34:57;;;;;;;11.88;6.18;;;0.80;91.10;;;;;;4998913;28;20038;-80
2021/12/26 07:37:23;;;;;;;10.65;5.18;;;0.80;91.20;;;;;;5012081;28;20113;-79
2021/12/26 07:39:49;;;;;;;9.07;5.07;;;0.80;91.20;;;;;;5021211;28;20699;-80
2021/12/26 07:42:14;;;;;;;12.05;6.13;;;0.80;91.20;;;;;;4996870;28;20124;-81
2021/12/26 07:44:40;;;;;;;15.77;8.48;;;0.90;91.20;;;;;;5017916;28;20140;-80
2021/12/26 07:47:06;;;;;;;12.70;6.35;;;0.90;91.20;;;;;;5021556;28;20029;-80
2021/12/26 07:49:31;;;;;;;10.60;5.18;;;0.90;91.20;;;;;;5009474;28;20098;-78
2021/12/26 07:51:58;;;;;;;16.45;6.35;;;0.90;91.20;;;;;;5023682;28;20134;-80
2021/12/26 07:54:24;;;;;;;9.15;4.45;;;0.90;91.20;;;;;;5011593;28;20038;-80
2021/12/26 07:56:50;;;;;;;31.13;11.27;;;0.90;91.20;;;;;;5005974;28;20034;-80
2021/12/26 07:59:16;;;;;;;11.57;7.00;;;0.90;91.20;;;;;;5018857;28;20545;-80
2021/12/26 08:01:41;;;;;;;13.75;7.93;;;0.90;91.20;;;;;;5009509;28;20049;-80
2021/12/26 08:04:10;;;;;;;12.93;7.38;;;0.90;91.20;;;;;;5032557;28;20052;-80
2021/12/26 08:06:36;;;;;;;72.05;37.55;;;0.90;91.20;;;;;;5018299;28;20133;-82
2021/12/26 08:09:02;;;;;;;16.98;9.65;;;1.00;91.20;;;;;;4999346;28;20125;-80
2021/12/26 08:11:27;;;;;;;7.95;4.72;;;0.90;91.10;;;;;;5024750;28;20519;-80
2021/12/26 08:13:53;;;;;;;8.88;5.32;;;1.00;91.20;;;;;;5007528;28;20040;-79
2021/12/26 08:16:18;;;;;;;14.82;9.45;;;1.00;91.20;;;;;;4998399;28;20033;-79
2021/12/26 08:18:44;;;;;;;10.23;6.20;;;1.00;91.20;;;;;;5015228;28;20038;-79
2021/12/26 08:21:09;;;;;;;9.18;5.63;;;1.00;91.20;;;;;;5027536;28;20063;-79
2021/12/26 08:23:35;;;;;;;7.95;4.63;;;1.00;91.20;;;;;;5001254;28;20385;-78
2021/12/26 08:26:00;;;;;;;24.90;13.18;;;1.00;91.20;;;;;;5016367;28;20543;-79
2021/12/26 08:28:26;;;;;;;11.43;6.05;;;1.00;91.20;;;;;;5018094;28;20411;-79
2021/12/26 08:30:52;;;;;;;8.35;4.50;;;1.00;91.20;;;;;;4999694;28;20037;-78
2021/12/26 08:33:17;;;;;;;7.32;4.72;;;1.00;91.20;;;;;;5015201;28;20443;-78
2021/12/26 08:35:43;;;;;;;8.45;4.93;;;1.00;91.20;;;;;;4996955;28;20029;-78
2021/12/26 08:38:09;;;;;;;9.80;4.95;;;1.10;91.20;;;;;;5012470;28;20532;-79
2021/12/26 08:40:35;;;;;;;8.57;4.80;;;1.10;91.20;;;;;;4999231;28;20025;-78
2021/12/26 08:43:00;;;;;;;10.15;4.82;;;1.00;91.20;;;;;;5023737;28;20030;-79
2021/12/26 08:45:26;;;;;;;8.30;4.75;;;1.10;91.20;;;;;;5011668;28;20117;-79
2021/12/26 08:47:55;;;;;;;7.63;4.47;;;1.10;91.20;;;;;;4991006;28;20040;-78
2021/12/26 08:50:21;;;;;;;8.18;4.78;;;1.10;91.20;;;;;;5021100;28;20685;-77
2021/12/26 08:52:46;;;;;;;10.65;4.38;;;1.10;91.20;;;;;;4997655;28;20292;-79
2021/12/26 08:55:12;;;;;;;7.70;4.35;;;1.10;91.20;;;;;;5011521;28;20045;-80
2021/12/26 08:57:37;;;;;;;8.75;4.72;;;1.10;91.30;;;;;;5013369;28;20132;-78
2021/12/26 09:00:05;;;;;;;8.35;4.60;;;1.10;91.30;;;;;;5010966;28;20037;-81
2021/12/26 09:02:30;;;;;;;7.68;4.68;;;1.10;91.60;;;;;;4978961;28;20111;-79
2021/12/26 09:04:55;;;;;;;8.20;4.65;;;1.20;91.30;;;;;;5010120;28;20500;-79
2021/12/26 09:07:21;;;;;;;35.10;21.75;;;1.20;91.30;;;;;;5006975;28;20037;-79
2021/12/26 09:09:48;;;;;;;15.52;8.88;;;1.20;91.30;;;;;;5001406;28;20037;-78
2021/12/26 09:12:13;;;;;;;198.50;73.72;;;1.20;91.30;;;;;;5020015;28;20037;-79
2021/12/26 09:14:39;;;;;;;180.93;68.03;;;1.20;91.30;;;;;;4991650;28;20096;-79
2021/12/26 09:17:05;;;;;;;63.60;26.25;;;1.20;91.30;;;;;;5008263;28;20037;-79
2021/12/26 09:19:30;;;;;;;21.63;10.20;;;1.20;91.30;;;;;;5018401;28;20048;-80
2021/12/26 09:21:57;;;;;;;17.92;9.20;;;1.20;91.30;;;;;;5010728;28;20045;-79
2021/12/26 09:24:22;;;;;;;61.88;25.70;;;1.20;91.30;;;;;;5011813;28;20141;-79
2021/12/26 09:26:48;;;;;;;33.42;16.05;;;1.20;91.30;;;;;;5007928;28;20132;-79
2021/12/26 09:29:13;;;;;;;17.08;9.57;;;1.20;91.30;;;;;;5013392;28;20119;-79
2021/12/26 09:31:39;;;;;;;10.18;6.53;;;1.30;91.30;;;;;;5009811;28;20033;-79
2021/12/26 09:34:04;;;;;;;30.80;13.70;;;1.30;91.30;;;;;;5007194;28;20046;-80
2021/12/26 09:36:30;;;;;;;14.85;7.95;;;1.30;91.30;;;;;;5013349;28;20048;-79
2021/12/26 09:38:55;;;;;;;14.43;8.05;;;1.30;91.30;;;;;;4968848;28;20045;-80
2021/12/26 09:41:21;;;;;;;12.35;6.57;;;1.30;91.30;;;;;;5028155;28;20083;-79
2021/12/26 09:43:47;;;;;;;16.17;8.77;;;1.30;91.30;;;;;;5001870;28;20421;-79
2021/12/26 09:46:12;;;;;;;13.57;7.18;;;1.30;91.30;;;;;;5008978;28;20455;-80
2021/12/26 09:48:38;;;;;;;11.52;6.28;;;1.30;91.30;;;;;;5021095;28;20161;-79
2021/12/26 09:51:04;;;;;;;12.43;7.18;;;1.30;91.30;;;;;;5017432;28;20474;-78
2021/12/26 09:53:33;;;;;;;14.80;7.93;;;1.30;91.30;;;;;;4996428;28;20026;-79
2021/12/26 09:55:58;;;;;;;13.50;7.15;;;1.30;91.30;;;;;;5008907;28;20381;-78
2021/12/26 09:58:24;;;;;;;18.90;9.18;;;1.40;91.30;;;;;;5014372;28;20043;-78
2021/12/26 10:00:49;;;;;;;14.93;7.38;;;1.40;91.40;;;;;;4999142;28;20119;-78
2021/12/26 10:03:33;;;;;;;12.30;7.43;;;1.40;91.40;;;;;;5012549;28;20524;-78
2021/12/26 10:06:10;;;;;;;12.15;7.38;;;1.40;91.40;;;;;;5018255;28;20607;-78
2021/12/26 10:09:05;;;;;;;12.82;6.72;;;1.40;91.30;;;;;;5014082;28;20043;-79
2021/12/26 10:11:32;;;;;;;13.30;8.00;;;1.40;91.30;;;;;;5016503;28;20072;-79
2021/12/26 10:14:08;;;;;;;22.70;12.43;;;1.40;91.30;;;;;;5013626;28;20033;-80
2021/12/26 10:16:38;;;;;;;17.50;8.50;;;1.40;91.30;;;;;;5001534;28;20087;-78
2021/12/26 10:19:04;;;;;;;16.95;8.88;;;1.40;91.30;;;;;;5012047;28;20026;-79
2021/12/26 10:21:39;;;;;;;15.27;7.78;;;1.50;91.40;;;;;;4998597;28;20033;-80
2021/12/26 10:24:12;;;;;;;16.35;8.65;;;1.50;91.40;;;;;;4997157;28;20576;-78
2021/12/26 10:26:41;;;;;;;16.05;8.00;;;1.50;91.40;;;;;;5012920;28;20041;-79
2021/12/26 10:29:11;;;;;;;15.30;7.22;;;1.50;91.40;;;;;;5027419;28;20638;-79
2021/12/26 10:31:41;;;;;;;15.32;8.10;;;1.50;91.40;;;;;;5011698;28;20080;-78
2021/12/26 10:34:06;;;;;;;11.95;7.18;;;1.50;91.40;;;;;;5007601;28;20029;-78
2021/12/26 10:36:32;;;;;;;13.52;7.03;;;1.50;91.30;;;;;;5007960;28;20503;-79
2021/12/26 10:39:12;;;;;;;17.23;7.80;;;1.50;91.30;;;;;;4969800;28;20044;-79
2021/12/26 10:41:41;;;;;;;17.25;9.90;;;1.50;91.40;;;;;;5003708;28;20431;-79
2021/12/26 10:44:10;;;;;;;28.70;22.08;;;1.50;91.40;;;;;;5016415;28;20099;-80
2021/12/26 10:46:37;;;;;;;13.88;7.78;;;1.50;91.30;;;;;;5009058;28;20197;-79
2021/12/26 10:49:42;;;;;;;12.80;7.28;;;1.50;91.40;;;;;;5010822;28;20892;-78
2021/12/26 10:52:21;;;;;;;13.10;7.45;;;1.60;91.40;;;;;;4956633;28;20046;-78
2021/12/26 10:54:51;;;;;;;13.07;7.85;;;1.60;91.40;;;;;;4928670;28;20086;-80
2021/12/26 10:57:22;;;;;;;15.82;7.30;;;1.60;91.40;;;;;;5004594;28;20031;-79
2021/12/26 10:59:59;;;;;;;10.70;6.28;;;1.60;91.40;;;;;;5024120;28;20037;-79
2021/12/26 11:02:27;;;;;;;11.50;6.50;;;1.60;91.40;;;;;;5021408;28;20037;-79
2021/12/26 11:05:10;;;;;;;11.50;7.10;;;1.60;91.40;;;;;;5016658;28;20026;-79
2021/12/26 11:07:45;;;;;;;11.32;6.38;;;1.60;91.40;;;;;;4999159;28;20044;-79
2021/12/26 11:10:31;;;;;;;15.02;7.43;;;1.60;91.40;;;;;;5021959;28;20384;-80
2021/12/26 11:12:58;;;;;;;32.50;16.05;;;1.70;91.40;;;;;;5011091;28;20430;-80
2021/12/26 11:15:26;;;;;;;14.38;8.15;;;1.70;91.40;;;;;;5011940;28;20030;-79
2021/12/26 11:17:55;;;;;;;13.23;6.78;;;1.70;91.40;;;;;;5005990;28;20042;-79
2021/12/26 11:20:42;;;;;;;16.08;8.23;;;1.70;91.40;;;;;;5027068;28;20033;-79
2021/12/26 11:23:09;;;;;;;14.52;7.32;;;1.70;91.40;;;;;;5012678;28;20037;-79
2021/12/26 11:26:07;;;;;;;15.80;7.32;;;1.70;91.40;;;;;;4996434;28;20040;-79
2021/12/26 11:28:34;;;;;;;11.48;6.93;;;1.70;91.40;;;;;;4991719;28;20140;-80
2021/12/26 11:31:04;;;;;;;12.43;7.40;;;1.70;91.40;;;;;;5002920;28;20054;-78
2021/12/26 11:33:29;;;;;;;19.25;8.80;;;1.80;91.40;;;;;;5026603;28;20048;-75
2021/12/26 11:35:55;;;;;;;20.35;9.32;;;1.80;91.40;;;;;;4991754;28;20483;-81
2021/12/26 11:38:22;;;;;;;49.80;18.88;;;1.80;91.40;;;;;;5018576;28;20029;-80
2021/12/26 11:41:01;;;;;;;67.07;22.65;;;1.80;91.40;;;;;;4994554;28;20044;-80
2021/12/26 11:43:55;;;;;;;196.13;47.85;;;1.80;91.40;;;;;;5000273;28;20211;-80
2021/12/26 11:46:41;;;;;;;42.92;14.68;;;1.80;91.40;;;;;;5024668;28;20038;-81
2021/12/26 11:49:44;;;;;;;200.50;42.95;;;1.80;91.40;;;;;;5012630;28;20050;-81
2021/12/26 11:52:57;;;;;;;74.70;19.42;;;1.90;91.40;;;;;;5015128;28;20026;-81
2021/12/26 11:55:38;;;;;;;18.63;10.32;;;1.90;91.50;;;;;;5012841;28;20118;-81
2021/12/26 11:58:19;;;;;;;32.53;11.60;;;1.90;91.40;;;;;;5035897;28;20066;-80
2021/12/26 12:00:49;;;;;;;39.60;11.23;;;1.90;91.40;;;;;;5020927;28;20036;-81
2021/12/26 12:03:23;;;;;;;51.30;14.27;;;1.90;91.40;;;;;;5022792;28;20798;-81
2021/12/26 12:05:48;;;;;;;177.65;35.70;;;1.90;91.40;;;;;;5024823;28;20072;-81
2021/12/26 12:08:16;;;;;;;126.90;25.02;;;1.90;91.50;;;;;;5002132;28;20045;-80
2021/12/26 12:10:48;;;;;;;99.43;20.80;;;1.90;91.50;;;;;;4992494;28;20845;-80
2021/12/26 12:13:23;;;;;;;46.67;14.10;;;1.90;91.50;;;;;;5023099;28;20043;-81
2021/12/26 12:16:01;;;;;;;29.52;10.63;;;1.90;91.50;;;;;;5015421;28;20041;-79
2021/12/26 12:18:35;;;;;;;17.27;9.30;;;1.90;91.50;;;;;;5001097;28;20112;-79
2021/12/26 12:21:07;;;;;;;20.70;10.18;;;1.90;91.50;;;;;;5014345;28;20041;-79
2021/12/26 12:23:33;;;;;;;17.23;9.93;;;2.00;91.50;;;;;;5027044;28;20045;-81
2021/12/26 12:25:58;;;;;;;15.10;8.15;;;2.00;91.50;;;;;;5032013;28;20037;-80
2021/12/26 12:28:31;;;;;;;16.02;8.98;;;1.90;91.40;;;;;;5029864;28;20057;-73
2021/12/26 12:31:07;;;;;;;16.60;8.98;;;2.00;91.40;;;;;;5014067;28;20037;-81
2021/12/26 12:33:33;;;;;;;12.65;7.53;;;2.00;91.40;;;;;;5016918;28;20033;-80
2021/12/26 12:36:08;;;;;;;14.57;8.18;;;2.00;91.50;;;;;;5045764;28;20497;-80
2021/12/26 12:38:40;;;;;;;15.63;7.93;;;2.00;91.50;;;;;;5010234;28;20044;-80
2021/12/26 12:41:29;;;;;;;15.40;7.78;;;2.00;91.50;;;;;;4999267;28;20053;-80
2021/12/26 12:43:57;;;;;;;17.25;10.13;;;2.00;91.50;;;;;;5005876;28;20033;-80
2021/12/26 12:46:22;;;;;;;15.20;8.05;;;2.00;91.50;;;;;;5023285;28;20050;-80
2021/12/26 12:49:03;;;;;;;16.80;8.38;;;2.00;91.50;;;;;;5015180;28;20040;-81
2021/12/26 12:51:31;;;;;;;19.67;8.73;;;2.00;91.50;;;;;;5003195;28;20400;-81
2021/12/26 12:53:58;;;;;;;15.35;8.52;;;2.00;91.50;;;;;;4984717;28;20037;-80
2021/12/26 12:56:29;;;;;;;14.63;8.23;;;2.00;91.50;;;;;;5011148;28;20036;-80